Time,TemperatureF,DewpointF,PressureIn,WindDirection,WindDirectionDegrees,WindSpeedMPH,WindSpeedGustMPH,Humidity,HourlyPrecipIn,Conditions,Clouds,dailyrainin,SolarRadiationWatts/m^2,SoftwareType,DateUTC
2013-04-21 00:01:00,30.0,30.0,-100.00,WNW,291,2.0,8.0,100,0.00,,,0.00,0.000000,,2013-04-21 06:01:00,
2013-04-21 00:12:00,30.0,30.0,-100.00,WNW,291,2.0,8.0,100,0.00,,,0.00,0.000000,,2013-04-21 06:12:00,
2013-04-21 00:21:00,30.0,30.0,-100.00,WNW,291,2.0,8.0,100,0.00,,,0.00,0.000000,,2013-04-21 06:21:00,
2013-04-21 00:22:00,30.0,-99.9,-100.00,West,263,3.0,5.0,-999,0.00,,,0.00,0.000000,,2013-04-21 06:22:00,
2013-04-21 00:42:00,30.0,-99.9,-100.00,West,263,3.0,5.0,-999,0.00,,,0.00,0.000000,,2013-04-21 06:42:00,
2013-04-21 00:52:00,30.0,-99.9,-100.00,West,263,3.0,5.0,-999,0.00,,,0.00,0.000000,,2013-04-21 06:52:00,
2013-04-21 01:02:00,30.0,-99.9,-100.00,West,263,3.0,5.0,-999,0.00,,,0.00,0.000000,,2013-04-21 07:02:00,
2013-04-21 01:12:00,30.0,-99.9,-100.00,West,263,3.0,5.0,-999,0.00,,,0.00,0.000000,,2013-04-21 07:12:00,
2013-04-21 01:22:00,29.0,-99.9,-100.00,NW,312,1.0,8.0,-999,0.00,,,0.00,0.000000,,2013-04-21 07:22:00,
2013-04-21 01:42:00,29.0,-99.9,-100.00,NW,312,1.0,8.0,-999,0.00,,,0.00,0.000000,,2013-04-21 07:42:00,
2013-04-21 01:52:00,29.0,-99.9,-100.00,NW,312,1.0,8.0,-999,0.00,,,0.00,0.000000,,2013-04-21 07:52:00,
2013-04-21 02:02:00,29.0,-99.9,-100.00,NW,312,1.0,8.0,-999,0.00,,,0.00,0.000000,,2013-04-21 08:02:00,
2013-04-21 02:12:00,29.0,-99.9,-100.00,NW,312,1.0,8.0,-999,0.00,,,0.00,0.000000,,2013-04-21 08:12:00,
2013-04-21 02:22:00,28.0,-99.9,-100.00,West,270,2.0,3.0,-999,0.00,,,0.00,0.000000,,2013-04-21 08:22:00,
2013-04-21 02:42:00,28.0,-99.9,-100.00,West,270,2.0,3.0,-999,0.00,,,0.00,0.000000,,2013-04-21 08:42:00,
2013-04-21 02:52:00,28.0,-99.9,-100.00,West,270,2.0,3.0,-999,0.00,,,0.00,0.000000,,2013-04-21 08:52:00,
2013-04-21 03:02:00,28.0,-99.9,-100.00,West,270,2.0,3.0,-999,0.00,,,0.00,0.000000,,2013-04-21 09:02:00,
2013-04-21 03:12:00,28.0,-99.9,-100.00,West,270,2.0,3.0,-999,0.00,,,0.00,0.000000,,2013-04-21 09:12:00,
2013-04-21 03:22:00,28.0,-99.9,-100.00,West,281,1.0,3.0,-999,0.00,,,0.00,0.000000,,2013-04-21 09:22:00,
2013-04-21 03:43:00,28.0,-99.9,-100.00,West,281,1.0,3.0,-999,0.00,,,0.00,0.000000,,2013-04-21 09:43:00,
2013-04-21 03:53:00,28.0,-99.9,-100.00,West,281,1.0,3.0,-999,0.00,,,0.00,0.000000,,2013-04-21 09:53:00,
2013-04-21 04:03:00,28.0,-99.9,-100.00,West,281,1.0,3.0,-999,0.00,,,0.00,0.000000,,2013-04-21 10:03:00,
2013-04-21 04:12:00,28.0,-99.9,-100.00,West,281,1.0,3.0,-999,0.00,,,0.00,0.000000,,2013-04-21 10:12:00,
2013-04-21 04:22:00,28.0,-99.9,-100.00,WNW,283,2.0,3.0,-999,0.00,,,0.00,0.000000,,2013-04-21 10:22:00,
2013-04-21 04:43:00,28.0,-99.9,-100.00,WNW,283,2.0,3.0,-999,0.00,,,0.00,0.000000,,2013-04-21 10:43:00,
2013-04-21 04:52:00,28.0,-99.9,-100.00,WNW,283,2.0,3.0,-999,0.00,,,0.00,0.000000,,2013-04-21 10:52:00,
2013-04-21 05:03:00,28.0,-99.9,-100.00,WNW,283,2.0,3.0,-999,0.00,,,0.00,0.000000,,2013-04-21 11:03:00,
2013-04-21 05:12:00,28.0,-99.9,-100.00,WNW,283,2.0,3.0,-999,0.00,,,0.00,0.000000,,2013-04-21 11:12:00,
2013-04-21 05:22:00,28.0,-99.9,-100.00,West,281,2.0,3.0,-999,0.00,,,0.00,0.000000,,2013-04-21 11:22:00,
2013-04-21 05:42:00,28.0,-99.9,-100.00,West,281,2.0,3.0,-999,0.00,,,0.00,0.000000,,2013-04-21 11:42:00,
2013-04-21 05:52:00,28.0,-99.9,-100.00,West,281,2.0,3.0,-999,0.00,,,0.00,0.000000,,2013-04-21 11:52:00,
2013-04-21 06:03:00,28.0,-99.9,-100.00,West,281,2.0,3.0,-999,0.00,,,0.00,0.000000,,2013-04-21 12:03:00,
2013-04-21 06:12:00,28.0,-99.9,-100.00,West,281,2.0,3.0,-999,0.00,,,0.00,0.000000,,2013-04-21 12:12:00,
2013-04-21 06:22:00,27.0,-99.9,-100.00,WNW,290,2.0,3.0,-999,0.00,,,0.00,0.000000,,2013-04-21 12:22:00,
2013-04-21 06:42:00,27.0,-99.9,-100.00,WNW,290,2.0,3.0,-999,0.00,,,0.00,0.000000,,2013-04-21 12:42:00,
2013-04-21 06:52:00,27.0,-99.9,-100.00,WNW,290,2.0,3.0,-999,0.00,,,0.00,0.000000,,2013-04-21 12:52:00,
2013-04-21 07:02:00,27.0,-99.9,-100.00,WNW,290,2.0,3.0,-999,0.00,,,0.00,0.000000,,2013-04-21 13:02:00,
2013-04-21 07:12:00,27.0,-99.9,-100.00,WNW,290,2.0,3.0,-999,0.00,,,0.00,0.000000,,2013-04-21 13:12:00,
2013-04-21 07:22:00,27.0,-99.9,-100.00,NW,309,1.0,3.0,-999,0.00,,,0.00,22.000000,,2013-04-21 13:22:00,
2013-04-21 07:42:00,27.0,-99.9,-100.00,NW,309,1.0,3.0,-999,0.00,,,0.00,22.000000,,2013-04-21 13:42:00,
2013-04-21 07:52:00,27.0,-99.9,-100.00,NW,309,1.0,3.0,-999,0.00,,,0.00,22.000000,,2013-04-21 13:52:00,
2013-04-21 08:02:00,27.0,-99.9,-100.00,NW,309,1.0,3.0,-999,0.00,,,0.00,22.000000,,2013-04-21 14:02:00,
2013-04-21 08:12:00,27.0,-99.9,-100.00,NW,309,1.0,3.0,-999,0.00,,,0.00,22.000000,,2013-04-21 14:12:00,
2013-04-21 08:22:00,28.0,-99.9,-100.00,ENE,78,1.0,2.0,-999,0.00,,,0.00,115.000000,,2013-04-21 14:22:00,
2013-04-21 08:42:00,28.0,-99.9,-100.00,ENE,78,1.0,2.0,-999,0.00,,,0.00,115.000000,,2013-04-21 14:42:00,
2013-04-21 08:52:00,28.0,-99.9,-100.00,ENE,78,1.0,2.0,-999,0.00,,,0.00,115.000000,,2013-04-21 14:52:00,
2013-04-21 09:02:00,28.0,-99.9,-100.00,ENE,78,1.0,2.0,-999,0.00,,,0.00,115.000000,,2013-04-21 15:02:00,
2013-04-21 09:12:00,28.0,-99.9,-100.00,ENE,78,1.0,2.0,-999,0.00,,,0.00,115.000000,,2013-04-21 15:12:00,
2013-04-21 09:22:00,34.0,33.0,-100.00,NW,312,2.0,3.0,97,0.00,,,0.00,397.000000,,2013-04-21 15:22:00,
2013-04-21 09:43:00,34.0,33.0,-100.00,NW,312,2.0,3.0,97,0.00,,,0.00,397.000000,,2013-04-21 15:43:00,
2013-04-21 09:53:00,34.0,33.0,-100.00,NW,312,2.0,3.0,97,0.00,,,0.00,397.000000,,2013-04-21 15:53:00,
2013-04-21 10:03:00,34.0,33.0,-100.00,NW,312,2.0,3.0,97,0.00,,,0.00,397.000000,,2013-04-21 16:03:00,
2013-04-21 10:12:00,34.0,33.0,-100.00,NW,312,2.0,3.0,97,0.00,,,0.00,397.000000,,2013-04-21 16:12:00,
2013-04-21 10:22:00,38.0,31.0,-100.00,NW,305,3.0,4.0,76,0.02,,,0.02,774.000000,,2013-04-21 16:22:00,
2013-04-21 10:42:00,38.0,31.0,-100.00,NW,305,3.0,4.0,76,0.02,,,0.02,774.000000,,2013-04-21 16:42:00,
2013-04-21 10:53:00,38.0,31.0,-100.00,NW,305,3.0,4.0,76,0.02,,,0.02,774.000000,,2013-04-21 16:53:00,
2013-04-21 11:02:00,38.0,31.0,-100.00,NW,305,3.0,4.0,76,0.02,,,0.02,774.000000,,2013-04-21 17:02:00,
2013-04-21 11:12:00,38.0,31.0,-100.00,NW,305,3.0,4.0,76,0.02,,,0.02,774.000000,,2013-04-21 17:12:00,
2013-04-21 11:22:00,41.0,27.0,-100.00,WNW,283,3.0,7.0,57,0.01,,,0.03,875.000000,,2013-04-21 17:22:00,
2013-04-21 11:42:00,41.0,27.0,-100.00,WNW,283,3.0,7.0,57,0.01,,,0.03,875.000000,,2013-04-21 17:42:00,
2013-04-21 11:52:00,41.0,27.0,-100.00,WNW,283,3.0,7.0,57,0.01,,,0.03,875.000000,,2013-04-21 17:52:00,
2013-04-21 12:02:00,41.0,27.0,-100.00,WNW,283,3.0,7.0,57,0.01,,,0.03,875.000000,,2013-04-21 18:02:00,
2013-04-21 12:11:00,41.0,27.0,-100.00,WNW,283,3.0,7.0,57,0.01,,,0.03,875.000000,,2013-04-21 18:11:00,
2013-04-21 12:42:00,43.0,25.0,-100.00,NW,321,4.0,6.0,48,0.00,,,0.03,978.000000,,2013-04-21 18:42:00,
2013-04-21 12:52:00,43.0,25.0,-100.00,NW,321,4.0,6.0,48,0.00,,,0.03,978.000000,,2013-04-21 18:52:00,
2013-04-21 13:02:00,43.0,25.0,-100.00,NW,321,4.0,6.0,48,0.00,,,0.03,978.000000,,2013-04-21 19:02:00,
2013-04-21 13:12:00,43.0,25.0,-100.00,NW,321,4.0,6.0,48,0.00,,,0.03,978.000000,,2013-04-21 19:12:00,
2013-04-21 13:21:00,43.0,25.0,-100.00,NW,321,4.0,6.0,48,0.00,,,0.03,978.000000,,2013-04-21 19:21:00,
2013-04-21 13:22:00,48.0,23.0,-100.00,NW,307,4.0,8.0,37,0.00,,,0.03,1128.000000,,2013-04-21 19:22:00,
2013-04-21 13:43:00,48.0,23.0,-100.00,NW,307,4.0,8.0,37,0.00,,,0.03,1128.000000,,2013-04-21 19:43:00,
2013-04-21 13:52:00,48.0,23.0,-100.00,NW,307,4.0,8.0,37,0.00,,,0.03,1128.000000,,2013-04-21 19:52:00,
2013-04-21 14:02:00,48.0,23.0,-100.00,NW,307,4.0,8.0,37,0.00,,,0.03,1128.000000,,2013-04-21 20:02:00,
2013-04-21 14:11:00,48.0,23.0,-100.00,NW,307,4.0,8.0,37,0.00,,,0.03,1128.000000,,2013-04-21 20:11:00,
2013-04-21 14:42:00,50.0,16.0,-100.00,West,281,7.0,13.0,25,0.00,,,0.03,1017.000000,,2013-04-21 20:42:00,
2013-04-21 14:52:00,50.0,16.0,-100.00,West,281,7.0,13.0,25,0.00,,,0.03,1017.000000,,2013-04-21 20:52:00,
2013-04-21 15:02:00,50.0,16.0,-100.00,West,281,7.0,13.0,25,0.00,,,0.03,1017.000000,,2013-04-21 21:02:00,
2013-04-21 15:12:00,50.0,16.0,-100.00,West,281,7.0,13.0,25,0.00,,,0.03,1017.000000,,2013-04-21 21:12:00,
2013-04-21 15:21:00,50.0,16.0,-100.00,West,281,7.0,13.0,25,0.00,,,0.03,1017.000000,,2013-04-21 21:21:00,
2013-04-21 15:22:00,49.0,11.0,-100.00,West,267,8.0,15.0,21,0.00,,,0.03,897.000000,,2013-04-21 21:22:00,
2013-04-21 15:43:00,49.0,11.0,-100.00,West,267,8.0,15.0,21,0.00,,,0.03,897.000000,,2013-04-21 21:43:00,
2013-04-21 15:53:00,49.0,11.0,-100.00,West,267,8.0,15.0,21,0.00,,,0.03,897.000000,,2013-04-21 21:53:00,
2013-04-21 16:02:00,49.0,11.0,-100.00,West,267,8.0,15.0,21,0.00,,,0.03,897.000000,,2013-04-21 22:02:00,
2013-04-21 16:12:00,49.0,11.0,-100.00,West,267,8.0,15.0,21,0.00,,,0.03,897.000000,,2013-04-21 22:12:00,
2013-04-21 16:22:00,50.0,14.0,-100.00,West,262,10.0,16.0,23,0.00,,,0.03,803.000000,,2013-04-21 22:22:00,
2013-04-21 16:43:00,50.0,14.0,-100.00,West,262,10.0,16.0,23,0.00,,,0.03,803.000000,,2013-04-21 22:43:00,
2013-04-21 16:52:00,50.0,14.0,-100.00,West,262,10.0,16.0,23,0.00,,,0.03,803.000000,,2013-04-21 22:52:00,
2013-04-21 17:02:00,50.0,14.0,-100.00,West,262,10.0,16.0,23,0.00,,,0.03,803.000000,,2013-04-21 23:02:00,
2013-04-21 17:12:00,50.0,14.0,-100.00,West,262,10.0,16.0,23,0.00,,,0.03,803.000000,,2013-04-21 23:12:00,
2013-04-21 17:43:00,49.0,6.0,-100.00,WSW,249,11.0,17.0,17,0.00,,,0.03,700.000000,,2013-04-21 23:43:00,
2013-04-21 17:52:00,49.0,6.0,-100.00,WSW,249,11.0,17.0,17,0.00,,,0.03,700.000000,,2013-04-21 23:52:00,
2013-04-21 18:01:00,49.0,6.0,-100.00,WSW,249,11.0,17.0,17,0.00,,,0.03,700.000000,,2013-04-22 00:01:00,
2013-04-21 18:11:00,49.0,6.0,-100.00,WSW,249,11.0,17.0,17,0.00,,,0.03,700.000000,,2013-04-22 00:11:00,
2013-04-21 18:21:00,49.0,6.0,-100.00,WSW,249,11.0,17.0,17,0.00,,,0.03,700.000000,,2013-04-22 00:21:00,
2013-04-21 18:42:00,48.0,13.0,-100.00,West,270,7.0,17.0,24,0.00,,,0.03,413.000000,,2013-04-22 00:42:00,
2013-04-21 18:52:00,48.0,13.0,-100.00,West,270,7.0,17.0,24,0.00,,,0.03,413.000000,,2013-04-22 00:52:00,
2013-04-21 19:01:00,48.0,13.0,-100.00,West,270,7.0,17.0,24,0.00,,,0.03,413.000000,,2013-04-22 01:01:00,
2013-04-21 19:12:00,48.0,13.0,-100.00,West,270,7.0,17.0,24,0.00,,,0.03,413.000000,,2013-04-22 01:12:00,
2013-04-21 19:21:00,48.0,13.0,-100.00,West,270,7.0,17.0,24,0.00,,,0.03,413.000000,,2013-04-22 01:21:00,
2013-04-21 19:42:00,44.0,16.0,-100.00,West,266,7.0,14.0,32,0.00,,,0.03,200.000000,,2013-04-22 01:42:00,
2013-04-21 19:52:00,44.0,16.0,-100.00,West,266,7.0,14.0,32,0.00,,,0.03,200.000000,,2013-04-22 01:52:00,
2013-04-21 20:02:00,44.0,16.0,-100.00,West,266,7.0,14.0,32,0.00,,,0.03,200.000000,,2013-04-22 02:02:00,
2013-04-21 20:11:00,44.0,16.0,-100.00,West,266,7.0,14.0,32,0.00,,,0.03,200.000000,,2013-04-22 02:11:00,
2013-04-21 20:21:00,44.0,16.0,-100.00,West,266,7.0,14.0,32,0.00,,,0.03,200.000000,,2013-04-22 02:21:00,
2013-04-21 20:22:00,38.0,17.0,-100.00,West,262,4.0,7.0,42,0.00,,,0.03,15.000000,,2013-04-22 02:22:00,
2013-04-21 20:42:00,38.0,17.0,-100.00,West,262,4.0,7.0,42,0.00,,,0.03,15.000000,,2013-04-22 02:42:00,
2013-04-21 20:52:00,38.0,17.0,-100.00,West,262,4.0,7.0,42,0.00,,,0.03,15.000000,,2013-04-22 02:52:00,
2013-04-21 21:02:00,38.0,17.0,-100.00,West,262,4.0,7.0,42,0.00,,,0.03,15.000000,,2013-04-22 03:02:00,
2013-04-21 21:11:00,38.0,17.0,-100.00,West,262,4.0,7.0,42,0.00,,,0.03,15.000000,,2013-04-22 03:11:00,
2013-04-21 21:22:00,36.0,16.0,-100.00,SW,236,2.0,5.0,44,0.00,,,0.03,0.000000,,2013-04-22 03:22:00,
2013-04-21 21:43:00,36.0,16.0,-100.00,SW,236,2.0,5.0,44,0.00,,,0.03,0.000000,,2013-04-22 03:43:00,
2013-04-21 21:53:00,36.0,16.0,-100.00,SW,236,2.0,5.0,44,0.00,,,0.03,0.000000,,2013-04-22 03:53:00,
2013-04-21 22:03:00,36.0,16.0,-100.00,SW,236,2.0,5.0,44,0.00,,,0.03,0.000000,,2013-04-22 04:03:00,
2013-04-21 22:12:00,36.0,16.0,-100.00,SW,236,2.0,5.0,44,0.00,,,0.03,0.000000,,2013-04-22 04:12:00,
2013-04-21 22:22:00,36.0,11.0,-100.00,West,275,1.0,4.0,35,0.00,,,0.03,0.000000,,2013-04-22 04:22:00,
2013-04-21 22:43:00,36.0,11.0,-100.00,West,275,1.0,4.0,35,0.00,,,0.03,0.000000,,2013-04-22 04:43:00,
2013-04-21 22:53:00,36.0,11.0,-100.00,West,275,1.0,4.0,35,0.00,,,0.03,0.000000,,2013-04-22 04:53:00,
2013-04-21 23:02:00,36.0,11.0,-100.00,West,275,1.0,4.0,35,0.00,,,0.03,0.000000,,2013-04-22 05:02:00,
2013-04-21 23:12:00,36.0,11.0,-100.00,West,275,1.0,4.0,35,0.00,,,0.03,0.000000,,2013-04-22 05:12:00,
2013-04-21 23:42:00,39.0,15.0,-100.00,West,263,3.0,7.0,37,0.00,,,0.03,0.000000,,2013-04-22 05:42:00,
2013-04-21 23:52:00,39.0,15.0,-100.00,West,263,3.0,7.0,37,0.00,,,0.03,0.000000,,2013-04-22 05:52:00,